createdAt,value
2023-06-12T00:01:32.169Z,15.00
2023-06-12T00:04:03.553Z,14.90
2023-06-12T00:06:32.244Z,14.90
2023-06-12T00:09:00.474Z,14.90
2023-06-12T00:11:31.641Z,14.90
2023-06-12T00:14:03.356Z,14.80
2023-06-12T00:16:34.710Z,14.80
2023-06-12T00:19:06.376Z,14.70
2023-06-12T00:21:41.660Z,14.70
2023-06-12T00:24:13.222Z,14.70
2023-06-12T00:26:41.419Z,14.70
2023-06-12T00:29:15.150Z,14.70
2023-06-12T00:31:47.197Z,14.60
2023-06-12T00:34:19.314Z,14.60
2023-06-12T00:36:50.025Z,14.50
2023-06-12T00:39:26.603Z,14.50
2023-06-12T00:41:56.305Z,14.50
2023-06-12T00:44:27.053Z,14.50
2023-06-12T00:47:00.484Z,14.50
2023-06-12T00:49:29.388Z,14.50
2023-06-12T00:52:01.104Z,14.40
2023-06-12T00:54:33.363Z,14.40
2023-06-12T00:57:06.538Z,14.40
2023-06-12T00:59:38.399Z,14.30
2023-06-12T01:02:11.916Z,14.30
2023-06-12T01:04:48.676Z,14.30
2023-06-12T01:07:48.384Z,14.30
2023-06-12T01:10:26.167Z,14.30
2023-06-12T01:12:55.322Z,14.30
2023-06-12T01:15:30.597Z,14.30
2023-06-12T01:17:59.800Z,14.20
2023-06-12T01:20:28.032Z,14.20
2023-06-12T01:23:10.944Z,14.20
2023-06-12T01:25:51.176Z,14.10
2023-06-12T01:28:23.385Z,14.20
2023-06-12T01:31:09.875Z,14.10
2023-06-12T01:33:42.971Z,14.10
2023-06-12T01:36:22.261Z,14.10
2023-06-12T01:38:57.298Z,14.10
2023-06-12T01:41:34.187Z,14.00
2023-06-12T01:44:13.575Z,14.00
2023-06-12T01:46:47.065Z,14.00
2023-06-12T01:49:17.733Z,14.00
2023-06-12T01:51:49.739Z,13.90
2023-06-12T01:54:20.431Z,14.00
2023-06-12T01:56:50.330Z,13.90
2023-06-12T01:59:26.614Z,13.90
2023-06-12T02:02:00.580Z,13.90
2023-06-12T02:04:33.574Z,13.90
2023-06-12T02:07:04.943Z,13.90
2023-06-12T02:09:36.441Z,13.90
2023-06-12T02:12:10.476Z,13.80
2023-06-12T02:14:44.181Z,13.80
2023-06-12T02:17:19.249Z,13.80
2023-06-12T02:19:48.388Z,13.80
2023-06-12T02:22:21.388Z,13.80
2023-06-12T02:24:55.468Z,13.80
2023-06-12T02:27:28.934Z,13.80
2023-06-12T02:30:00.595Z,13.80
2023-06-12T02:32:30.586Z,13.70
2023-06-12T02:35:04.566Z,13.70
2023-06-12T02:37:38.450Z,13.70
2023-06-12T02:40:08.363Z,13.70
2023-06-12T02:42:41.975Z,13.70
2023-06-12T02:45:15.591Z,13.70
2023-06-12T02:47:46.799Z,13.70
2023-06-12T02:50:18.401Z,13.70
2023-06-12T02:53:04.317Z,13.70
2023-06-12T02:55:33.556Z,13.70
2023-06-12T02:58:08.249Z,13.80
2023-06-12T03:00:41.910Z,13.70
2023-06-12T03:03:12.384Z,13.80
2023-06-12T03:05:46.600Z,13.80
2023-06-12T03:08:17.904Z,13.80
2023-06-12T03:10:50.290Z,13.80
2023-06-12T03:13:21.914Z,13.80
2023-06-12T03:15:50.888Z,13.90
2023-06-12T03:18:22.661Z,13.90
2023-06-12T03:20:54.365Z,14.00
2023-06-12T03:23:26.362Z,14.00
2023-06-12T03:25:57.066Z,14.10
2023-06-12T03:28:26.302Z,14.10
2023-06-12T03:31:01.309Z,14.20
2023-06-12T03:33:33.501Z,14.30
2023-06-12T03:36:07.495Z,14.30
2023-06-12T03:38:39.318Z,14.30
2023-06-12T03:41:10.554Z,14.40
2023-06-12T03:43:45.205Z,14.50
2023-06-12T03:46:19.405Z,14.50
2023-06-12T03:48:52.337Z,14.60
2023-06-12T03:51:23.108Z,14.70
2023-06-12T03:53:53.679Z,14.80
2023-06-12T03:56:29.288Z,14.80
2023-06-12T03:58:58.694Z,14.80
2023-06-12T04:01:32.145Z,14.80
2023-06-12T04:04:08.613Z,14.90
2023-06-12T04:06:43.863Z,15.00
2023-06-12T04:09:16.545Z,15.00
2023-06-12T04:11:48.515Z,15.10
2023-06-12T04:14:16.726Z,15.20
2023-06-12T04:16:53.165Z,15.30
2023-06-12T04:19:22.902Z,15.50
2023-06-12T04:21:54.480Z,15.60
2023-06-12T04:24:25.804Z,15.80
2023-06-12T04:27:03.432Z,15.90
2023-06-12T04:29:35.140Z,16.00
2023-06-12T04:32:07.070Z,16.20
2023-06-12T04:34:46.873Z,16.30
2023-06-12T04:37:15.721Z,16.40
2023-06-12T04:39:49.262Z,16.50
2023-06-12T04:42:18.486Z,16.60
2023-06-12T04:44:52.898Z,16.60
2023-06-12T04:47:22.206Z,16.70
2023-06-12T04:49:59.622Z,16.80
2023-06-12T04:52:29.543Z,16.80
2023-06-12T04:55:00.786Z,16.90
2023-06-12T04:57:29.257Z,16.90
2023-06-12T04:59:59.936Z,17.00
2023-06-12T05:02:28.173Z,17.10
2023-06-12T05:04:59.598Z,17.20
2023-06-12T05:07:29.474Z,17.30
2023-06-12T05:10:01.945Z,17.50
2023-06-12T05:12:36.391Z,17.60
2023-06-12T05:15:06.489Z,17.70
2023-06-12T05:17:40.181Z,17.70
2023-06-12T05:20:12.940Z,17.80
2023-06-12T05:22:44.331Z,17.90
2023-06-12T05:25:15.364Z,17.90
2023-06-12T05:27:47.233Z,18.10
2023-06-12T05:30:16.862Z,18.10
2023-06-12T05:32:45.178Z,18.10
2023-06-12T05:35:15.241Z,18.30
2023-06-12T05:37:43.506Z,18.40
2023-06-12T05:40:15.648Z,18.50
2023-06-12T05:42:51.803Z,18.60
2023-06-12T05:45:23.775Z,18.80
2023-06-12T05:47:52.373Z,18.90
2023-06-12T05:50:25.579Z,19.10
2023-06-12T05:53:02.092Z,19.20
2023-06-12T05:55:33.318Z,19.50
2023-06-12T05:58:08.810Z,19.70
2023-06-12T06:00:40.367Z,19.90
2023-06-12T06:03:26.507Z,20.20
2023-06-12T06:05:57.832Z,20.40
2023-06-12T06:08:28.440Z,20.60
2023-06-12T06:11:05.173Z,20.80
2023-06-12T06:13:44.451Z,20.90
2023-06-12T06:16:19.457Z,21.00
2023-06-12T06:18:53.128Z,21.30
2023-06-12T06:21:24.602Z,21.50
2023-06-12T06:23:56.979Z,21.60
2023-06-12T06:26:33.131Z,21.70
2023-06-12T06:29:14.343Z,21.80
2023-06-12T06:31:46.708Z,22.00
2023-06-12T06:34:23.685Z,22.10
2023-06-12T06:36:59.694Z,22.20
2023-06-12T06:39:33.609Z,22.10
2023-06-12T06:42:08.657Z,22.10
2023-06-12T06:44:50.663Z,22.30
2023-06-12T06:47:27.786Z,22.50
2023-06-12T06:49:58.018Z,22.60
2023-06-12T06:52:26.461Z,22.70
2023-06-12T06:54:55.381Z,22.70
2023-06-12T06:57:28.315Z,22.70
2023-06-12T07:00:07.012Z,22.60
2023-06-12T07:02:42.208Z,22.70
2023-06-12T07:05:12.458Z,23.20
2023-06-12T07:07:59.761Z,23.80
2023-06-12T07:10:31.060Z,24.30
2023-06-12T07:13:02.511Z,24.70
2023-06-12T07:15:47.948Z,24.80
2023-06-12T07:18:16.180Z,24.80
2023-06-12T07:20:46.906Z,24.90
2023-06-12T07:23:15.201Z,24.90
2023-06-12T07:25:43.350Z,24.90
2023-06-12T07:28:12.755Z,24.90
2023-06-12T07:30:41.524Z,25.30
2023-06-12T07:33:11.402Z,25.50
2023-06-12T07:35:41.041Z,25.90
2023-06-12T07:38:11.548Z,26.40
2023-06-12T07:40:40.180Z,26.70
2023-06-12T07:43:09.731Z,27.00
2023-06-12T07:45:39.973Z,27.00
2023-06-12T07:48:11.182Z,27.40
2023-06-12T07:50:44.191Z,28.30
2023-06-12T07:53:28.165Z,28.90
2023-06-12T07:56:04.463Z,29.30
2023-06-12T07:58:32.695Z,29.50
2023-06-12T08:01:06.685Z,29.60
2023-06-12T08:03:41.511Z,29.60
2023-06-12T08:06:11.835Z,29.90
2023-06-12T08:08:44.836Z,30.50
2023-06-12T08:11:14.211Z,30.70
2023-06-12T08:13:45.308Z,31.10
2023-06-12T08:16:14.855Z,31.20
2023-06-12T08:18:45.337Z,31.20
2023-06-12T08:21:13.775Z,29.80
2023-06-12T08:23:42.075Z,28.40
2023-06-12T08:26:10.628Z,27.60
2023-06-12T08:28:39.471Z,26.70
2023-06-12T08:31:15.182Z,27.00
2023-06-12T08:33:47.106Z,28.80
2023-06-12T08:36:15.490Z,30.60
2023-06-12T08:38:43.832Z,31.60
2023-06-12T08:41:17.890Z,32.10
2023-06-12T08:43:53.294Z,32.60
2023-06-12T08:46:24.656Z,32.50
2023-06-12T08:48:53.166Z,31.70
2023-06-12T08:51:25.163Z,30.40
2023-06-12T08:53:53.790Z,29.30
2023-06-12T08:56:24.264Z,30.40
2023-06-12T08:58:52.455Z,29.80
2023-06-12T09:01:20.640Z,31.40
2023-06-12T09:03:50.366Z,32.50
2023-06-12T09:06:27.633Z,32.80
2023-06-12T09:09:01.444Z,31.40
2023-06-12T09:11:41.086Z,30.00
2023-06-12T09:14:14.534Z,28.90
2023-06-12T09:16:50.075Z,28.00
2023-06-12T09:19:29.654Z,27.30
2023-06-12T09:22:05.587Z,26.90
2023-06-12T09:24:44.612Z,26.90
2023-06-12T09:27:16.668Z,26.90
2023-06-12T09:29:45.671Z,27.00
2023-06-12T09:32:19.351Z,27.10
2023-06-12T09:34:52.022Z,27.30
2023-06-12T09:37:25.566Z,27.50
2023-06-12T09:40:10.698Z,27.60
2023-06-12T09:42:44.735Z,27.60
2023-06-12T09:45:19.025Z,27.50
2023-06-12T09:47:50.835Z,27.40
2023-06-12T09:50:26.886Z,27.30
2023-06-12T09:53:01.734Z,27.10
2023-06-12T09:55:32.698Z,26.80
2023-06-12T09:58:04.063Z,26.40
2023-06-12T10:00:38.383Z,26.10
2023-06-12T10:03:16.161Z,25.80
2023-06-12T10:05:53.685Z,25.70
2023-06-12T10:08:26.818Z,25.40
2023-06-12T10:10:56.028Z,25.20
2023-06-12T10:13:26.335Z,24.80
2023-06-12T10:15:54.522Z,24.50
2023-06-12T10:18:22.920Z,23.90
2023-06-12T10:20:51.373Z,23.50
2023-06-12T10:23:19.574Z,23.20
2023-06-12T10:25:48.243Z,22.90
2023-06-12T10:28:17.332Z,22.40
2023-06-12T10:31:04.224Z,22.00
2023-06-12T10:33:32.416Z,21.80
2023-06-12T10:36:00.602Z,21.50
2023-06-12T10:38:34.101Z,21.50
2023-06-12T10:46:45.929Z,21.50
2023-06-12T10:49:18.720Z,21.40
2023-06-12T10:51:50.563Z,21.30
2023-06-12T10:54:28.111Z,21.30
2023-06-12T10:57:02.921Z,21.30
2023-06-12T10:59:34.714Z,21.30
2023-06-12T11:02:04.544Z,21.20
2023-06-12T11:04:38.230Z,21.10
2023-06-12T11:07:06.838Z,21.00
2023-06-12T11:09:40.868Z,20.90
2023-06-12T11:12:10.054Z,20.70
2023-06-12T11:14:38.994Z,20.60
2023-06-12T11:17:10.235Z,20.50
2023-06-12T11:19:41.365Z,20.40
2023-06-12T11:22:09.956Z,20.40
2023-06-12T11:24:38.131Z,20.30
2023-06-12T11:27:09.370Z,20.30
2023-06-12T11:29:52.604Z,19.90
2023-06-12T11:32:34.443Z,19.70
2023-06-12T11:35:04.874Z,19.70
2023-06-12T11:37:34.090Z,19.70
2023-06-12T11:40:13.859Z,19.70
2023-06-12T11:42:43.186Z,19.80
2023-06-12T11:45:15.573Z,19.90
2023-06-12T11:50:21.603Z,20.00
2023-06-12T11:52:51.657Z,20.20
2023-06-12T11:57:56.700Z,20.50
2023-06-12T12:00:27.687Z,20.90
2023-06-12T12:03:00.647Z,21.20
2023-06-12T12:05:34.102Z,21.50
2023-06-12T12:08:04.825Z,21.90
2023-06-12T12:10:34.731Z,22.50
2023-06-12T12:13:04.058Z,22.80
2023-06-12T12:15:33.357Z,22.90
2023-06-12T12:18:02.349Z,23.10
2023-06-12T12:20:31.998Z,23.10
2023-06-12T12:23:01.440Z,23.20
2023-06-12T12:25:30.662Z,23.00
2023-06-12T12:28:01.562Z,22.90
2023-06-12T12:30:32.373Z,22.70
2023-06-12T12:33:00.973Z,22.60
2023-06-12T12:35:29.218Z,22.60
2023-06-12T12:37:57.988Z,22.50
2023-06-12T12:40:32.027Z,22.40
2023-06-12T12:43:00.162Z,22.30
2023-06-12T12:45:33.875Z,22.30
2023-06-12T12:48:07.423Z,22.20
2023-06-12T12:50:39.329Z,22.20
2023-06-12T12:53:12.998Z,22.20
2023-06-12T12:55:41.110Z,22.10
2023-06-12T12:58:18.521Z,22.10
2023-06-12T13:00:51.352Z,22.00
2023-06-12T13:03:22.321Z,22.00
2023-06-12T13:05:56.449Z,22.00
2023-06-12T13:08:27.403Z,22.10
2023-06-12T13:10:57.943Z,22.00
2023-06-12T13:13:30.958Z,22.00
2023-06-12T13:16:02.107Z,22.00
2023-06-12T13:18:32.922Z,21.90
2023-06-12T13:21:03.337Z,21.80
2023-06-12T13:23:31.765Z,21.80
2023-06-12T13:26:05.394Z,21.80
2023-06-12T13:28:35.024Z,21.80
2023-06-12T13:31:03.476Z,21.70
2023-06-12T13:33:36.382Z,21.80
2023-06-12T13:36:04.765Z,21.80
2023-06-12T13:38:35.209Z,21.90
2023-06-12T13:41:03.933Z,21.90
2023-06-12T13:43:35.148Z,22.00
2023-06-12T13:46:03.447Z,22.20
2023-06-12T13:48:33.804Z,22.40
2023-06-12T13:51:02.128Z,22.60
2023-06-12T13:53:32.856Z,22.80
2023-06-12T13:56:03.442Z,23.10
2023-06-12T13:58:31.797Z,23.50
2023-06-12T14:01:02.387Z,23.80
2023-06-12T14:03:31.489Z,24.10
2023-06-12T14:05:59.717Z,24.20
2023-06-12T14:08:27.805Z,24.60
2023-06-12T14:10:55.997Z,24.80
2023-06-12T14:13:24.136Z,24.60
2023-06-12T14:15:52.474Z,24.40
2023-06-12T14:18:22.901Z,24.20
2023-06-12T14:20:54.234Z,23.90
2023-06-12T14:23:22.693Z,23.80
2023-06-12T14:25:50.948Z,23.60
2023-06-12T14:28:22.097Z,23.50
2023-06-12T14:30:50.369Z,23.50
2023-06-12T14:33:18.518Z,23.50
2023-06-12T14:35:50.205Z,23.30
2023-06-12T14:38:18.426Z,23.20
2023-06-12T14:40:47.418Z,23.00
2023-06-12T14:43:19.403Z,22.90
2023-06-12T14:45:47.699Z,22.90
2023-06-12T14:48:15.906Z,22.80
2023-06-12T14:50:43.975Z,22.70
2023-06-12T14:53:14.180Z,22.70
2023-06-12T14:55:44.215Z,22.60
2023-06-12T14:58:12.984Z,22.60
2023-06-12T15:00:41.454Z,22.50
2023-06-12T15:03:10.302Z,22.50
2023-06-12T15:05:38.547Z,22.50
2023-06-12T15:08:06.737Z,22.50
2023-06-12T15:10:34.859Z,22.50
2023-06-12T15:13:10.361Z,22.40
2023-06-12T15:15:39.131Z,22.40
2023-06-12T15:18:07.566Z,22.40
2023-06-12T15:20:38.475Z,22.30
2023-06-12T15:23:07.678Z,22.30
2023-06-12T15:25:38.743Z,22.20
2023-06-12T15:28:07.066Z,22.10
2023-06-12T15:30:35.221Z,22.00
2023-06-12T15:33:06.443Z,22.00
2023-06-12T15:35:34.691Z,21.90
2023-06-12T15:38:21.735Z,21.80
2023-06-12T15:40:50.106Z,21.80
2023-06-12T15:43:22.143Z,21.80
2023-06-12T15:45:50.706Z,21.70
2023-06-12T15:48:18.966Z,21.80
2023-06-12T15:50:47.112Z,21.80
2023-06-12T15:53:15.439Z,21.70
2023-06-12T15:55:43.458Z,21.60
2023-06-12T15:58:11.730Z,21.60
2023-06-12T16:00:43.252Z,21.50
2023-06-12T16:03:11.496Z,21.40
2023-06-12T16:05:39.914Z,21.40
2023-06-12T16:08:08.134Z,21.30
2023-06-12T16:10:36.326Z,21.30
2023-06-12T16:13:04.469Z,21.20
2023-06-12T16:15:32.662Z,21.10
2023-06-12T16:18:00.841Z,21.10
2023-06-12T16:20:28.951Z,21.00
2023-06-12T16:22:57.050Z,21.00
2023-06-12T16:25:25.237Z,20.90
2023-06-12T16:27:53.286Z,20.80
2023-06-12T16:30:24.715Z,20.80
2023-06-12T16:32:53.454Z,20.80
2023-06-12T16:35:21.812Z,20.70
2023-06-12T16:37:50.019Z,20.70
2023-06-12T16:40:18.549Z,20.60
2023-06-12T16:42:46.735Z,20.60
2023-06-12T16:45:14.781Z,20.50
2023-06-12T16:47:42.914Z,20.40
2023-06-12T16:50:11.997Z,20.30
2023-06-12T16:52:40.377Z,20.30
2023-06-12T16:55:08.729Z,20.20
2023-06-12T16:57:39.744Z,20.10
2023-06-12T17:00:09.772Z,20.00
2023-06-12T17:02:37.906Z,20.00
2023-06-12T17:05:06.412Z,20.00
2023-06-12T17:07:37.358Z,20.00
2023-06-12T17:10:05.820Z,19.90
2023-06-12T17:12:33.945Z,19.80
2023-06-12T17:15:02.239Z,19.80
2023-06-12T17:17:33.530Z,19.80
2023-06-12T17:20:02.559Z,19.70
2023-06-12T17:22:34.228Z,19.70
2023-06-12T17:25:03.378Z,19.70
2023-06-12T17:27:32.579Z,19.60
2023-06-12T17:30:04.589Z,19.60
2023-06-12T17:32:32.878Z,19.50
2023-06-12T17:35:01.772Z,19.50
2023-06-12T17:37:30.374Z,19.40
2023-06-12T17:40:04.147Z,19.40
2023-06-12T17:42:34.035Z,19.40
2023-06-12T17:45:02.564Z,19.40
2023-06-12T17:47:34.858Z,19.40
2023-06-12T17:50:03.025Z,19.40
2023-06-12T17:52:31.358Z,19.40
2023-06-12T17:54:59.504Z,19.40
2023-06-12T17:57:27.559Z,19.30
2023-06-12T17:59:55.729Z,19.20
2023-06-12T18:02:24.026Z,19.20
2023-06-12T18:04:52.581Z,19.20
2023-06-12T18:07:21.624Z,19.20
2023-06-12T18:09:49.832Z,19.20
2023-06-12T18:12:18.951Z,19.20
2023-06-12T18:14:47.634Z,19.20
2023-06-12T18:17:15.998Z,19.10
2023-06-12T18:19:48.645Z,19.10
2023-06-12T18:22:19.307Z,19.10
2023-06-12T18:24:47.573Z,19.00
2023-06-12T18:27:17.476Z,19.00
2023-06-12T18:29:45.601Z,19.00
2023-06-12T18:32:13.791Z,19.00
2023-06-12T18:34:43.153Z,18.90
2023-06-12T18:37:11.358Z,18.90
2023-06-12T18:39:42.716Z,18.80
2023-06-12T18:42:12.081Z,18.80
2023-06-12T18:44:40.214Z,18.80
2023-06-12T18:47:08.384Z,18.70
2023-06-12T18:49:36.679Z,18.70
2023-06-12T18:52:05.971Z,18.70
2023-06-12T18:54:34.561Z,18.60
2023-06-12T18:57:02.612Z,18.60
2023-06-12T18:59:31.537Z,18.60
2023-06-12T19:02:00.795Z,18.60
2023-06-12T19:04:31.295Z,18.60
2023-06-12T19:06:59.609Z,18.70
2023-06-12T19:09:27.707Z,18.70
2023-06-12T19:11:58.007Z,18.60
2023-06-12T19:14:28.513Z,18.60
2023-06-12T19:19:30.392Z,18.60
2023-06-12T19:22:00.993Z,18.60
2023-06-12T19:24:31.548Z,18.50
2023-06-12T19:27:01.942Z,18.50
2023-06-12T19:29:32.347Z,18.50
2023-06-12T19:32:04.160Z,18.40
2023-06-12T19:34:32.689Z,18.40
2023-06-12T19:37:02.513Z,18.40
2023-06-12T19:39:31.568Z,18.30
2023-06-12T19:42:00.139Z,18.20
2023-06-12T19:44:28.236Z,18.20
2023-06-12T19:46:56.421Z,18.10
2023-06-12T19:49:24.542Z,18.10
2023-06-12T19:51:52.597Z,18.10
2023-06-12T19:54:20.820Z,18.00
2023-06-12T19:56:49.039Z,18.00
2023-06-12T19:59:19.516Z,18.00
2023-06-12T20:01:47.687Z,17.90
2023-06-12T20:04:16.755Z,18.00
2023-06-12T20:06:44.803Z,17.80
2023-06-12T20:09:13.517Z,17.80
2023-06-12T20:11:42.610Z,17.80
2023-06-12T20:14:10.758Z,17.80
2023-06-12T20:16:38.904Z,17.80
2023-06-12T20:19:07.293Z,17.80
2023-06-12T20:21:41.345Z,17.60
2023-06-12T20:24:09.947Z,17.60
2023-06-12T20:26:41.719Z,17.60
2023-06-12T20:29:09.993Z,17.60
2023-06-12T20:31:38.800Z,17.60
2023-06-12T20:34:06.964Z,17.60
2023-06-12T20:36:35.228Z,17.60
2023-06-12T20:39:10.540Z,17.60
2023-06-12T20:41:40.963Z,17.50
2023-06-12T20:44:15.213Z,17.50
2023-06-12T20:46:43.418Z,17.50
2023-06-12T20:49:11.548Z,17.50
2023-06-12T20:51:39.796Z,17.50
2023-06-12T20:54:08.183Z,17.50
2023-06-12T20:56:36.664Z,17.50
2023-06-12T20:59:05.165Z,17.50
2023-06-12T21:01:34.671Z,17.50
2023-06-12T21:04:03.137Z,17.40
2023-06-12T21:06:31.716Z,17.40
2023-06-12T21:09:00.335Z,17.40
2023-06-12T21:11:30.964Z,17.40
2023-06-12T21:13:59.750Z,17.40
2023-06-12T21:16:27.881Z,17.40
2023-06-12T21:18:56.991Z,17.40
2023-06-12T21:21:30.017Z,17.40
2023-06-12T21:24:00.843Z,17.40
2023-06-12T21:26:31.334Z,17.40
2023-06-12T21:28:59.741Z,17.40
2023-06-12T21:31:31.388Z,17.40
2023-06-12T21:34:00.883Z,17.40
2023-06-12T21:36:32.361Z,17.30
2023-06-12T21:39:00.801Z,17.30
2023-06-12T21:41:31.257Z,17.30
2023-06-12T21:43:59.340Z,17.30
2023-06-12T21:46:27.496Z,17.30
2023-06-12T21:48:57.892Z,17.20
2023-06-12T21:51:26.070Z,17.20
2023-06-12T21:53:54.289Z,17.20
2023-06-12T21:56:24.265Z,17.10
2023-06-12T21:58:54.735Z,17.10
2023-06-12T22:01:23.026Z,17.10
2023-06-12T22:03:53.428Z,17.10
2023-06-12T22:06:24.723Z,17.10
2023-06-12T22:08:52.986Z,17.10
2023-06-12T22:11:23.332Z,17.10
2023-06-12T22:13:51.802Z,17.00
2023-06-12T22:16:20.005Z,17.10
2023-06-12T22:18:50.584Z,17.10
2023-06-12T22:21:19.830Z,17.00
2023-06-12T22:23:51.011Z,17.00
2023-06-12T22:26:24.013Z,17.00
2023-06-12T22:28:52.150Z,17.00
2023-06-12T22:31:20.829Z,17.00
2023-06-12T22:33:49.948Z,17.00
2023-06-12T22:36:18.092Z,16.90
2023-06-12T22:38:49.160Z,16.90
2023-06-12T22:41:17.422Z,16.90
2023-06-12T22:43:47.703Z,17.00
2023-06-12T22:46:18.687Z,16.90
2023-06-12T22:48:52.646Z,16.90
2023-06-12T22:51:20.847Z,16.90
2023-06-12T22:53:48.960Z,16.90
2023-06-12T22:56:19.854Z,16.90
2023-06-12T22:58:48.918Z,16.90
2023-06-12T23:01:17.052Z,16.80
2023-06-12T23:03:45.435Z,16.80
2023-06-12T23:06:14.610Z,16.80
2023-06-12T23:08:44.912Z,16.80
2023-06-12T23:11:12.979Z,16.80
2023-06-12T23:13:42.067Z,16.80
2023-06-12T23:16:12.549Z,16.80
2023-06-12T23:18:41.827Z,16.70
2023-06-12T23:21:10.787Z,16.70
2023-06-12T23:23:38.997Z,16.70
2023-06-12T23:26:11.821Z,16.70
2023-06-12T23:28:40.124Z,16.70
2023-06-12T23:31:10.361Z,16.70
2023-06-12T23:33:39.822Z,16.70
2023-06-12T23:36:08.792Z,16.70
2023-06-12T23:38:37.767Z,16.70
2023-06-12T23:41:06.141Z,16.70
2023-06-12T23:43:36.960Z,16.70
2023-06-12T23:46:05.157Z,16.60
2023-06-12T23:48:34.309Z,16.60
2023-06-12T23:51:05.739Z,16.60
2023-06-12T23:53:33.837Z,16.50
2023-06-12T23:56:02.059Z,16.50
2023-06-12T23:58:30.149Z,16.50
